Ostermarsch — V2DO7 — position and weather

sailwx.info

Track history (hours):
 
Tides and Currents Weather Stations Pressure Air Temp Water Temp Dewpoint Dewpoint Depression Visibility Wind Speed Wind Dir Waves Ship Positions

Ostermarsch

Last reported at 2017-Sep-22 02:00 UTC. Time now 2017-Sep-22 08:32 UTC.
Position N 59°53' E 030°14'.

MMSI: 305283616.

Date/timePositionNaut miles runAvg speedWind from/ knotsBaromVisibWave heightAir tempDewpointWater temp
2017-Sep-22 02:00N 59°53' E 030°14'0 0.0
2017-Sep-22 01:30N 59°53' E 030°14'0 0.0
2017-Sep-22 01:00N 59°53' E 030°14'0 0.0
2017-Sep-22 00:30N 59°53' E 030°14'0 0.0
2017-Sep-22 00:00N 59°53' E 030°14'0 0.0
2017-Sep-21 23:31N 59°53' E 030°14'0 0.0
2017-Sep-21 23:00N 59°53' E 030°14'0 0.0
2017-Sep-21 22:30N 59°53' E 030°14'0 0.0
2017-Sep-21 22:00N 59°53' E 030°14'0 0.0
2017-Sep-21 21:29N 59°53' E 030°14'0 0.0
2017-Sep-21 21:00N 59°53' E 030°14'0 0.0
2017-Sep-21 20:30N 59°53' E 030°14'0 0.0
2017-Sep-21 20:00N 59°53' E 030°14'0 0.0
2017-Sep-21 19:30N 59°53' E 030°14'0 0.0
2017-Sep-21 19:00N 59°53' E 030°14'0 0.0
2017-Sep-21 18:30N 59°53' E 030°14'0 0.1
2017-Sep-21 18:00N 59°53' E 030°14'0 0.1
2017-Sep-21 17:30N 59°53' E 030°14'0 0.0
2017-Sep-21 17:00N 59°53' E 030°14'0 0.0
2017-Sep-21 16:30N 59°53' E 030°14'0 0.0
2017-Sep-21 16:00N 59°53' E 030°14'0 0.0
2017-Sep-21 15:30N 59°53' E 030°14'0 0.0
2017-Sep-21 15:00N 59°53' E 030°14'0 0.0
2017-Sep-21 14:30N 59°53' E 030°14'0 0.0
2017-Sep-21 14:00N 59°53' E 030°14'0 0.0
2017-Sep-21 13:30N 59°53' E 030°14'0 0.0
2017-Sep-21 13:00N 59°53' E 030°14'0 0.0
2017-Sep-21 12:30N 59°53' E 030°14'0 0.0
2017-Sep-21 12:00N 59°53' E 030°14'0 0.0
2017-Sep-21 11:25N 59°53' E 030°14'0 0.0
2017-Sep-21 09:59N 59°53' E 030°14'0 0.0
2017-Sep-21 09:30N 59°53' E 030°14'0 0.0
2017-Sep-21 09:00N 59°53' E 030°14'0 0.0
2017-Sep-21 08:29N 59°53' E 030°14'0 0.0
2017-Sep-21 08:00N 59°53' E 030°14'0 0.0
2017-Sep-21 07:30N 59°53' E 030°14'0 0.0
2017-Sep-21 07:00N 59°53' E 030°14'0 0.0
2017-Sep-21 06:30N 59°53' E 030°14'0 0.0
2017-Sep-21 06:00N 59°53' E 030°14'1 1.3
2017-Sep-21 05:30N 59°53' E 030°13'3 5.6
2017-Sep-21 05:00N 59°54' E 030°07'510.4
2017-Sep-21 04:29N 59°56' E 029°58'41 2.1
2017-Sep-20 08:53N 60°02' E 028°37'710.5
2017-Sep-20 08:15N 60°03' E 028°24'310.8
2017-Sep-20 08:00N 60°05' E 028°20'510.3
2017-Sep-20 07:30N 60°08' E 028°11'510.5
2017-Sep-20 07:00N 60°09' E 028°01'510.3
2017-Sep-20 06:29N 60°10' E 027°50'5 9.8
2017-Sep-20 06:00N 60°09' E 027°41'510.5
2017-Sep-20 05:30N 60°06' E 027°32'510.5
2017-Sep-20 05:00N 60°04' E 027°23'610.5
2017-Sep-20 04:29N 60°01' E 027°14'610.5
2017-Sep-20 03:52N 59°58' E 027°03'410.5
2017-Sep-20 03:30N 59°58' E 026°55'510.5
2017-Sep-20 03:00N 59°59' E 026°44'510.2
2017-Sep-20 02:30N 59°59' E 026°34'510.5
2017-Sep-20 02:00N 59°57' E 026°24'510.5
2017-Sep-20 01:31N 59°56' E 026°14'3810.6
2017-Sep-19 21:54N 59°47' E 024°60'410.4
2017-Sep-19 21:30N 59°46' E 024°52'510.3
2017-Sep-19 21:01N 59°45' E 024°42'510.3
2017-Sep-19 20:30N 59°44' E 024°32'510.2
2017-Sep-19 20:01N 59°43' E 024°22'84 9.5
2017-Sep-19 11:13N 59°35' E 021°38'210.4
2017-Sep-19 11:00N 59°35' E 021°34'510.1
2017-Sep-19 10:30N 59°39' E 021°26'510.3
2017-Sep-19 10:00N 59°43' E 021°21'510.9
2017-Sep-19 09:30N 59°48' E 021°20'611.6
2017-Sep-19 09:00N 59°52' E 021°29'  
2017-Sep-16 08:03N 59°58' E 021°41'111.6
2017-Sep-16 08:00N 59°57' E 021°40'611.4
2017-Sep-16 07:30N 59°53' E 021°32'611.5
2017-Sep-16 07:00N 59°50' E 021°23'510.5
2017-Sep-16 06:30N 59°45' E 021°21'510.0
2017-Sep-16 06:00N 59°40' E 021°17'32410.4
2017-Sep-14 22:49N 55°29' E 014°55'1210.7
2017-Sep-14 21:39N 55°22' E 014°36'210.9
2017-Sep-14 21:30N 55°21' E 014°34'510.7
2017-Sep-14 21:00N 55°17' E 014°28'6010.5
2017-Sep-14 15:20N 55°17' E 012°43'310.3
2017-Sep-14 15:00N 55°19' E 012°39'510.0
2017-Sep-14 14:30N 55°24' E 012°40'510.1
2017-Sep-14 14:00N 55°29' E 012°41'611.1
2017-Sep-14 13:30N 55°34' E 012°42'612.3
2017-Sep-14 13:00N 55°40' E 012°41'611.2
2017-Sep-14 12:30N 55°46' E 012°41'611.2
2017-Sep-14 12:00N 55°51' E 012°39'510.6
2017-Sep-14 11:30N 55°57' E 012°38'510.4
2017-Sep-14 11:00N 56°02' E 012°38'8110.8
2017-Sep-14 03:29N 57°15' E 011°32'611.6
2017-Sep-14 03:00N 57°20' E 011°29'611.3
2017-Sep-14 02:30N 57°25' E 011°25'610.8
2017-Sep-14 01:57N 57°30' E 011°19'510.8
2017-Sep-14 01:30N 57°33' E 011°12'611.0
2017-Sep-14 01:00N 57°37' E 011°05'511.0
2017-Sep-14 00:30N 57°41' E 010°57'19410.7
2017-Sep-13 06:18N 55°31' E 006°35'412.5
2017-Sep-13 06:00N 55°28' E 006°31'612.5
2017-Sep-13 05:30N 55°22' E 006°26'612.6
2017-Sep-13 04:59N 55°17' E 006°20'612.6
2017-Sep-13 04:29N 55°11' E 006°14'612.6
2017-Sep-13 04:00N 55°06' E 006°09'612.6
2017-Sep-13 03:30N 55°01' E 006°03'612.4
2017-Sep-13 02:59N 54°55' E 005°58'612.5
2017-Sep-13 02:29N 54°50' E 005°52'612.5
2017-Sep-13 02:00N 54°45' E 005°47'612.4
2017-Sep-13 01:30N 54°39' E 005°41'612.4
2017-Sep-13 00:59N 54°34' E 005°36'612.4
2017-Sep-13 00:29N 54°28' E 005°30'612.4
2017-Sep-13 00:00N 54°23' E 005°25'612.6
2017-Sep-12 23:30N 54°18' E 005°20'9512.0
2017-Sep-12 15:37N 52°52' E 004°14'110.6
2017-Sep-12 15:28N 52°50' E 004°13'510.9
2017-Sep-12 14:59N 52°46' E 004°08'9811.3
2017-Sep-12 06:20N 51°33' E 002°21'513.5
2017-Sep-12 06:00N 51°30' E 002°17'713.2
2017-Sep-12 05:30N 51°24' E 002°11'1113.4
2017-Sep-12 04:41N 51°14' E 002°03'314.1
2017-Sep-12 04:30N 51°13' E 002°00'  
Track history (hours):
 
Tides and Currents Weather Stations Pressure Air Temp Water Temp Dewpoint Dewpoint Depression Visibility Wind Speed Wind Dir Waves Ship Positions

Ostermarsch

Last reported at 2017-Sep-22 02:00 UTC. Time now 2017-Sep-22 08:32 UTC.
Position N 59°53' E 030°14'.

MMSI: 305283616.

Date/timePositionNaut miles runAvg speedWind from/ knotsBaromVisibWave heightAir tempDewpointWater temp
2017-Sep-22 02:00N 59°53' E 030°14'0 0.0
2017-Sep-22 01:30N 59°53' E 030°14'0 0.0
2017-Sep-22 01:00N 59°53' E 030°14'0 0.0
2017-Sep-22 00:30N 59°53' E 030°14'0 0.0
2017-Sep-22 00:00N 59°53' E 030°14'0 0.0
2017-Sep-21 23:31N 59°53' E 030°14'0 0.0
2017-Sep-21 23:00N 59°53' E 030°14'0 0.0
2017-Sep-21 22:30N 59°53' E 030°14'0 0.0
2017-Sep-21 22:00N 59°53' E 030°14'0 0.0
2017-Sep-21 21:29N 59°53' E 030°14'0 0.0
2017-Sep-21 21:00N 59°53' E 030°14'0 0.0
2017-Sep-21 20:30N 59°53' E 030°14'0 0.0
2017-Sep-21 20:00N 59°53' E 030°14'0 0.0
2017-Sep-21 19:30N 59°53' E 030°14'0 0.0
2017-Sep-21 19:00N 59°53' E 030°14'0 0.0
2017-Sep-21 18:30N 59°53' E 030°14'0 0.1
2017-Sep-21 18:00N 59°53' E 030°14'0 0.1
2017-Sep-21 17:30N 59°53' E 030°14'0 0.0
2017-Sep-21 17:00N 59°53' E 030°14'0 0.0
2017-Sep-21 16:30N 59°53' E 030°14'0 0.0
2017-Sep-21 16:00N 59°53' E 030°14'0 0.0
2017-Sep-21 15:30N 59°53' E 030°14'0 0.0
2017-Sep-21 15:00N 59°53' E 030°14'0 0.0
2017-Sep-21 14:30N 59°53' E 030°14'0 0.0
2017-Sep-21 14:00N 59°53' E 030°14'0 0.0
2017-Sep-21 13:30N 59°53' E 030°14'0 0.0
2017-Sep-21 13:00N 59°53' E 030°14'0 0.0
2017-Sep-21 12:30N 59°53' E 030°14'0 0.0
2017-Sep-21 12:00N 59°53' E 030°14'0 0.0
2017-Sep-21 11:25N 59°53' E 030°14'0 0.0
2017-Sep-21 09:59N 59°53' E 030°14'0 0.0
2017-Sep-21 09:30N 59°53' E 030°14'0 0.0
2017-Sep-21 09:00N 59°53' E 030°14'0 0.0
2017-Sep-21 08:29N 59°53' E 030°14'0 0.0
2017-Sep-21 08:00N 59°53' E 030°14'0 0.0
2017-Sep-21 07:30N 59°53' E 030°14'0 0.0
2017-Sep-21 07:00N 59°53' E 030°14'0 0.0
2017-Sep-21 06:30N 59°53' E 030°14'0 0.0
2017-Sep-21 06:00N 59°53' E 030°14'1 1.3
2017-Sep-21 05:30N 59°53' E 030°13'3 5.6
2017-Sep-21 05:00N 59°54' E 030°07'510.4
2017-Sep-21 04:29N 59°56' E 029°58'41 2.1
2017-Sep-20 08:53N 60°02' E 028°37'710.5
2017-Sep-20 08:15N 60°03' E 028°24'310.8
2017-Sep-20 08:00N 60°05' E 028°20'510.3
2017-Sep-20 07:30N 60°08' E 028°11'510.5
2017-Sep-20 07:00N 60°09' E 028°01'510.3
2017-Sep-20 06:29N 60°10' E 027°50'5 9.8
2017-Sep-20 06:00N 60°09' E 027°41'510.5
2017-Sep-20 05:30N 60°06' E 027°32'510.5
2017-Sep-20 05:00N 60°04' E 027°23'610.5
2017-Sep-20 04:29N 60°01' E 027°14'610.5
2017-Sep-20 03:52N 59°58' E 027°03'410.5
2017-Sep-20 03:30N 59°58' E 026°55'510.5
2017-Sep-20 03:00N 59°59' E 026°44'510.2
2017-Sep-20 02:30N 59°59' E 026°34'510.5
2017-Sep-20 02:00N 59°57' E 026°24'510.5
2017-Sep-20 01:31N 59°56' E 026°14'3810.6
2017-Sep-19 21:54N 59°47' E 024°60'410.4
2017-Sep-19 21:30N 59°46' E 024°52'510.3
2017-Sep-19 21:01N 59°45' E 024°42'510.3
2017-Sep-19 20:30N 59°44' E 024°32'510.2
2017-Sep-19 20:01N 59°43' E 024°22'84 9.5
2017-Sep-19 11:13N 59°35' E 021°38'210.4
2017-Sep-19 11:00N 59°35' E 021°34'510.1
2017-Sep-19 10:30N 59°39' E 021°26'510.3
2017-Sep-19 10:00N 59°43' E 021°21'510.9
2017-Sep-19 09:30N 59°48' E 021°20'611.6
2017-Sep-19 09:00N 59°52' E 021°29'  
2017-Sep-16 08:03N 59°58' E 021°41'111.6
2017-Sep-16 08:00N 59°57' E 021°40'611.4
2017-Sep-16 07:30N 59°53' E 021°32'611.5
2017-Sep-16 07:00N 59°50' E 021°23'510.5
2017-Sep-16 06:30N 59°45' E 021°21'510.0
2017-Sep-16 06:00N 59°40' E 021°17'32410.4
2017-Sep-14 22:49N 55°29' E 014°55'1210.7
2017-Sep-14 21:39N 55°22' E 014°36'210.9
2017-Sep-14 21:30N 55°21' E 014°34'510.7
2017-Sep-14 21:00N 55°17' E 014°28'6010.5
2017-Sep-14 15:20N 55°17' E 012°43'310.3
2017-Sep-14 15:00N 55°19' E 012°39'510.0
2017-Sep-14 14:30N 55°24' E 012°40'510.1
2017-Sep-14 14:00N 55°29' E 012°41'611.1
2017-Sep-14 13:30N 55°34' E 012°42'612.3
2017-Sep-14 13:00N 55°40' E 012°41'611.2
2017-Sep-14 12:30N 55°46' E 012°41'611.2
2017-Sep-14 12:00N 55°51' E 012°39'510.6
2017-Sep-14 11:30N 55°57' E 012°38'510.4
2017-Sep-14 11:00N 56°02' E 012°38'8110.8
2017-Sep-14 03:29N 57°15' E 011°32'611.6
2017-Sep-14 03:00N 57°20' E 011°29'611.3
2017-Sep-14 02:30N 57°25' E 011°25'610.8
2017-Sep-14 01:57N 57°30' E 011°19'510.8
2017-Sep-14 01:30N 57°33' E 011°12'611.0
2017-Sep-14 01:00N 57°37' E 011°05'511.0
2017-Sep-14 00:30N 57°41' E 010°57'19410.7
2017-Sep-13 06:18N 55°31' E 006°35'412.5
2017-Sep-13 06:00N 55°28' E 006°31'612.5
2017-Sep-13 05:30N 55°22' E 006°26'612.6
2017-Sep-13 04:59N 55°17' E 006°20'612.6
2017-Sep-13 04:29N 55°11' E 006°14'612.6
2017-Sep-13 04:00N 55°06' E 006°09'612.6
2017-Sep-13 03:30N 55°01' E 006°03'612.4
2017-Sep-13 02:59N 54°55' E 005°58'612.5
2017-Sep-13 02:29N 54°50' E 005°52'612.5
2017-Sep-13 02:00N 54°45' E 005°47'612.4
2017-Sep-13 01:30N 54°39' E 005°41'612.4
2017-Sep-13 00:59N 54°34' E 005°36'612.4
2017-Sep-13 00:29N 54°28' E 005°30'612.4
2017-Sep-13 00:00N 54°23' E 005°25'612.6
2017-Sep-12 23:30N 54°18' E 005°20'9512.0
2017-Sep-12 15:37N 52°52' E 004°14'110.6
2017-Sep-12 15:28N 52°50' E 004°13'510.9
2017-Sep-12 14:59N 52°46' E 004°08'9811.3
2017-Sep-12 06:20N 51°33' E 002°21'513.5
2017-Sep-12 06:00N 51°30' E 002°17'713.2
2017-Sep-12 05:30N 51°24' E 002°11'1113.4
2017-Sep-12 04:41N 51°14' E 002°03'314.1
2017-Sep-12 04:30N 51°13' E 002°00'  

Dump ship's entire track history